KFGX

Fleming-Mason Airport

Flemingsburg, Kentucky, USA
METAR KFGX 222015Z AUTO 23011G18KT 10SM CLR 17/00 A3015 RMK AO2 T01721002
Observed Flight Rules
Oct-22 @ 20:15 UTC (34 minutes ago) Visual Flight Rules
Wind Visibility Clouds
230° at 11 knots
 Gusting to 18 knots
10 miles
  • Clear skies
Temperatures Readings
Current 17°C / 63°F
Dewpoint -0°C / 32°F
Humidity 32%
Altimeter 30.15" Hg
Pressure 1021 hPa
Elevation 278
METAR KFGX 222015Z AUTO 23011G18KT 10SM CLR 17/00 A3015 RMK AO2 T01721002
Observed Flight Rules
Oct-22 @ 20:15 UTC
(34 minutes ago)
VFR
Wind Visibility
230° at 11 knots
 Gusting to 18 knots
10 miles
Clouds
  • Clear skies
Temperature Dewpoint
17°C / 63°F -0°C / 32°F
Humidity Altimeter Pressure
32% 30.15" Hg 1021 hPa